Flight Track Log - Related Links

Times and Time Zones

All times are in EDT time to prevent confusion due to time zone crossing. See the N549PA flight status page for this flight to view local times or setup timezone preferences in your user account.

Time Position Orientation Groundspeed Altitude Reporting Facility
EDT Latitude Longitude Course Direction KTS MPH feet Rate Location/Type
Fri 03:27:12 PM 25.8003 -80.2700 82° East 196 226 700  Level Miami Center
Fri 03:27:49 PM 25.8056 -80.2286 82° East 220 253 2,000 2,633 Climbing Miami Center
Fri 03:28:50 PM 25.8219 -80.1528 76° East 263 303 5,000 2,222 Climbing Miami Center
Fri 03:30:04 PM 25.9092 -80.1644 353° North 259 298 7,000 1,478 Climbing Miami Center
Fri 03:31:04 PM 25.9728 -80.2169 323° Northwest 326 375 8,300 2,345 Climbing Miami Center
Fri 03:31:54 PM 25.9942 -80.2847 289° West 259 298 11,300 3,400 Climbing Miami Center
Fri 03:32:04 PM 26.0044 -80.2964 314° West 277 319 11,700 2,459 Climbing Miami Center
Fri 03:32:55 PM 26.0256 -80.3711 287° West 303 349 13,800 2,600 Climbing Miami Center
Fri 03:33:04 PM 26.0358 -80.3853 309° West 313 360 14,300 1,739 Climbing Miami Center
Fri 03:34:04 PM 26.0561 -80.4900 282° West 368 423 15,800 1,900 Climbing Miami Center
Fri 03:35:04 PM 26.0806 -80.6017 284° West 374 430 18,100 2,300 Climbing Miami Center
Fri 03:36:04 PM 26.1431 -80.6869 309° West 353 406 20,400 1,750 Climbing Miami Center
Fri 03:37:04 PM 26.2181 -80.7703 315° West 366 421 21,600 1,950 Climbing Miami Center
Fri 03:38:04 PM 26.3017 -80.8497 320° Northwest 388 447 24,300 2,700 Climbing Miami Center
Fri 03:39:04 PM 26.3622 -80.9258 312° West 374 430 27,000 1,750 Climbing Miami Center
Fri 03:40:04 PM 26.4517 -81.0078 321° Northwest 372 428 27,800 1,200 Climbing Miami Center
Fri 03:41:04 PM 26.5481 -81.0714 329° Northwest 392 451 29,400 1,550 Climbing Miami Center
Fri 03:42:04 PM 26.6508 -81.1239 335° Northwest 397 457 30,900 1,500 Climbing Miami Center
Fri 03:43:04 PM 26.7428 -81.1900 327° Northwest 397 457 32,400 1,350 Climbing Miami Center
Fri 03:44:04 PM 26.8289 -81.2444 331° Northwest 397 457 33,600 1,000 Climbing Miami Center
Fri 03:45:04 PM 26.9275 -81.2972 334° Northwest 387 445 34,400 950 Climbing Miami Center
Fri 03:46:04 PM 27.0256 -81.3731 325° Northwest 392 451 35,500 900 Climbing Miami Center
Fri 03:47:04 PM 27.1217 -81.4353 330° Northwest 392 451 36,200 750 Climbing Miami Center
Fri 03:48:04 PM 27.2222 -81.4858 336° Northwest 392 451 37,000 850 Climbing Miami Center
Fri 03:49:04 PM 27.3081 -81.5406 330° Northwest 392 451 37,900 750 Climbing Miami Center
Fri 03:50:04 PM 27.3978 -81.6075 326° Northwest 386 444 38,500 720 Climbing Miami Center
Fri 03:51:59 PM 27.5708 -81.7153 331° Northwest 376 433 40,000 514 Climbing Jacksonville Center
Fri 03:52:59 PM 27.6653 -81.7656 335° Northwest 376 433 40,000  Level Jacksonville Center
Fri 03:53:59 PM 27.7636 -81.8233 333° Northwest 382 440 40,000  Level Jacksonville Center
Fri 03:54:58 PM 27.8622 -81.8856 331° Northwest 394 453 40,000  Level Jacksonville Center
Fri 03:55:58 PM 27.9544 -81.9553 326° Northwest 400 460 40,000  Level Jacksonville Center
Fri 03:56:58 PM 28.0489 -82.0156 331° Northwest 395 455 40,000  Level Jacksonville Center
Fri 03:57:59 PM 28.1558 -82.0850 330° Northwest 395 455 40,000  Level Jacksonville Center
Fri 03:58:59 PM 28.2519 -82.1433 332° Northwest 395 455 40,000  Level Jacksonville Center
Fri 03:59:59 PM 28.3544 -82.1850 340° North 395 455 40,000  Level Jacksonville Center
Fri 04:00:58 PM 28.4592 -82.2339 338° Northwest 395 455 40,000  Level Jacksonville Center
Fri 04:01:58 PM 28.5556 -82.2969 330° Northwest 395 455 40,000  Level Jacksonville Center
Fri 04:02:58 PM 28.6517 -82.3581 331° Northwest 395 455 40,000  Level Jacksonville Center
Fri 04:03:58 PM 28.7394 -82.4025 336° Northwest 395 455 40,000  Level Jacksonville Center
Fri 04:04:58 PM 28.8419 -82.4469 339° North 390 449 40,000  Level Jacksonville Center
Fri 04:05:58 PM 28.9444 -82.5033 334° Northwest 396 456 40,000  Level Jacksonville Center
Fri 04:06:58 PM 29.0428 -82.5672 330° Northwest 401 461 40,000  Level Jacksonville Center
Fri 04:07:58 PM 29.1453 -82.6192 336° Northwest 401 461 40,000  Level Jacksonville Center
Fri 04:08:58 PM 29.2497 -82.6689 337° Northwest 401 461 40,000  Level Jacksonville Center
Fri 04:09:58 PM 29.3478 -82.7306 331° Northwest 401 461 40,000  Level Jacksonville Center
Fri 04:10:58 PM 29.4481 -82.7925 332° Northwest 401 461 40,000  Level Jacksonville Center
Fri 04:11:58 PM 29.5631 -82.8497 337° Northwest 405 466 40,000  Level Jacksonville Center
Fri 04:12:58 PM 29.6714 -82.9044 336° Northwest 410 472 40,000  Level Jacksonville Center
Fri 04:13:58 PM 29.7739 -82.9667 332° Northwest 416 479 40,000  Level Jacksonville Center
Fri 04:14:58 PM 29.8739 -83.0314 331° Northwest 416 479 40,000  Level Jacksonville Center
Fri 04:15:58 PM 29.9803 -83.0867 336° Northwest 411 473 40,000  Level Jacksonville Center
Fri 04:16:59 PM 30.0889 -83.1375 338° Northwest 411 473 40,000  Level Jacksonville Center
Fri 04:17:59 PM 30.1931 -83.1978 333° Northwest 416 479 40,000  Level Jacksonville Center
Fri 04:18:58 PM 30.3014 -83.2486 338° Northwest 422 486 40,000  Level Jacksonville Center
Fri 04:19:59 PM 30.4164 -83.2781 348° North 416 479 40,000  Level Jacksonville Center
Fri 04:20:58 PM 30.5308 -83.3194 343° North 422 486 40,000  Level Jacksonville Center
Fri 04:21:58 PM 30.6394 -83.3778 335° Northwest 422 486 40,000  Level Jacksonville Center
Fri 04:22:59 PM 30.7519 -83.4219 341° North 422 486 40,000  Level Jacksonville Center
Fri 04:23:58 PM 30.8583 -83.4636 341° North 423 487 40,000  Level Jacksonville Center
Fri 04:24:59 PM 30.9708 -83.5178 338° Northwest 423 487 40,000  Level Jacksonville Center
Fri 04:26:41 PM 31.1553 -83.5875 342° North 432 497 40,000  Level Atlanta Center
Fri 04:27:41 PM 31.2700 -83.6308 342° North 432 497 40,000  Level Atlanta Center
Fri 04:28:41 PM 31.3622 -83.7156 322° Northwest 417 480 40,000 -400 Level Atlanta Center
Fri 04:29:41 PM 31.4564 -83.8003 323° Northwest 422 486 39,200 -950 Descending Atlanta Center
Fri 04:30:41 PM 31.5586 -83.8756 328° Northwest 432 497 38,100 -1,650 Descending Atlanta Center
Fri 04:31:41 PM 31.6736 -83.9681 326° Northwest 439 505 35,900 -1,800 Descending Atlanta Center
Fri 04:32:41 PM 31.7611 -84.0633 317° Northwest 446 513 34,500 -1,500 Descending Atlanta Center
Fri 04:33:41 PM 31.8572 -84.1514 322° Northwest 441 507 32,900 -1,500 Descending Atlanta Center
Fri 04:34:41 PM 31.9572 -84.2200 330° Northwest 431 496 31,500 -1,800 Descending Atlanta Center
Fri 04:35:41 PM 32.0553 -84.3058 323° Northwest 426 490 29,300 -2,200 Descending Atlanta Center
Fri 04:36:41 PM 32.1447 -84.4019 318° Northwest 431 496 27,100 -1,900 Descending Atlanta Center
Fri 04:38:41 PM 32.3300 -84.5525 326° Northwest 413 475 23,600 -1,733 Descending Atlanta Center
Fri 04:39:41 PM 32.4153 -84.6342 321° Northwest 406 467 21,900 -1,550 Descending Atlanta Center
Fri 04:40:41 PM 32.4961 -84.7186 319° Northwest 390 449 20,500 -1,550 Descending Atlanta Center
Fri 04:41:41 PM 32.5814 -84.7883 325° Northwest 384 442 18,800 -1,250 Descending Atlanta Center
Fri 04:42:41 PM 32.6542 -84.8283 335° Northwest 368 423 18,000 -2,300 Descending Atlanta Center
Fri 04:43:41 PM 32.7625 -84.8714 342° North 347 399 14,200 -3,250 Descending Atlanta Center
Fri 04:44:41 PM 32.8433 -84.9239 331° Northwest 347 399 11,500 -1,650 Descending Atlanta Center
Fri 04:45:41 PM 32.9206 -84.9569 340° North 304 350 10,900 -300 Descending Atlanta Center
Fri 04:46:41 PM 32.9850 -84.9922 335° Northwest 294 338 10,900 50 Level Atlanta Center
Fri 04:47:41 PM 33.0617 -85.0328 336° Northwest 294 338 11,000 50 Climbing Atlanta Center
Fri 04:48:41 PM 33.1367 -85.0658 340° North 287 330 11,000  Level Atlanta Center
Fri 04:49:41 PM 33.2053 -85.1064 334° Northwest 270 311 11,000  Level Atlanta Center
Fri 04:50:41 PM 33.2761 -85.1272 346° North 270 311 11,000 -600 Level Atlanta Center
Fri 04:51:41 PM 33.3639 -85.1108 North 275 316 9,800 -1,250 Descending Atlanta Center
Fri 04:52:41 PM 33.4453 -85.0969 North 287 330 8,500 -1,350 Descending Atlanta Center
Fri 04:53:41 PM 33.5289 -85.0906 North 293 337 7,100 -1,250 Descending Atlanta Center
Fri 04:54:41 PM 33.6061 -85.0864 North 288 331 6,000 -1,050 Descending Atlanta Center
Fri 04:55:41 PM 33.6833 -85.0772 North 281 323 5,000 -588 Descending Atlanta Center
Fri 04:58:05 PM 33.8500 -85.0167 17° North 262 302 4,000 -382 Descending Atlanta TRACON
Fri 04:59:05 PM 33.9167 -84.9667 32° Northeast 267 307 3,700 -300 Descending Atlanta TRACON

Login

Don't have an account? Register now (free) for customized features, flight alerts, and more!